createdAt,value
2022-10-14T00:02:40.650Z,5.70
2022-10-14T00:07:44.399Z,5.78
2022-10-14T00:12:47.461Z,5.57
2022-10-14T00:17:51.467Z,5.40
2022-10-14T00:22:54.134Z,5.65
2022-10-14T00:27:57.286Z,5.30
2022-10-14T00:33:01.345Z,5.10
2022-10-14T00:38:03.967Z,5.35
2022-10-14T00:43:10.706Z,4.82
2022-10-14T00:48:15.105Z,5.05
2022-10-14T00:53:19.240Z,5.13
2022-10-14T00:58:22.246Z,5.10
2022-10-14T01:03:26.309Z,4.60
2022-10-14T01:08:32.364Z,5.45
2022-10-14T01:13:36.186Z,4.60
2022-10-14T01:18:57.976Z,4.32
2022-10-14T01:24:19.120Z,4.85
2022-10-14T01:30:03.052Z,4.72
2022-10-14T01:35:12.659Z,4.55
2022-10-14T01:40:20.601Z,4.70
2022-10-14T01:45:23.979Z,4.97
2022-10-14T01:57:17.969Z,5.40
2022-10-14T02:02:21.095Z,4.47
2022-10-14T02:07:27.269Z,4.68
2022-10-14T02:12:35.532Z,4.47
2022-10-14T02:17:44.648Z,4.60
2022-10-14T02:22:53.074Z,4.90
2022-10-14T02:27:58.592Z,4.75
2022-10-14T02:33:02.167Z,4.35
2022-10-14T02:38:05.944Z,4.40
2022-10-14T02:43:11.432Z,4.10
2022-10-14T02:48:15.180Z,4.30
2022-10-14T02:53:18.417Z,4.40
2022-10-14T02:58:23.292Z,3.95
2022-10-14T03:03:26.050Z,4.25
2022-10-14T03:08:28.787Z,4.15
2022-10-14T03:13:34.527Z,4.38
2022-10-14T03:18:37.650Z,4.30
2022-10-14T03:23:50.537Z,3.97
2022-10-14T03:28:59.420Z,4.07
2022-10-14T03:34:14.650Z,4.13
2022-10-14T03:39:18.309Z,4.10
2022-10-14T03:44:26.365Z,3.78
2022-10-14T03:49:47.760Z,3.60
2022-10-14T03:54:58.184Z,4.18
2022-10-14T04:00:02.383Z,4.00
2022-10-14T04:05:16.152Z,4.05
2022-10-14T04:10:21.874Z,3.80
2022-10-14T04:15:29.492Z,3.90
2022-10-14T04:20:46.714Z,3.88
2022-10-14T04:25:50.917Z,3.72
2022-10-14T04:30:54.985Z,3.78
2022-10-14T04:36:04.536Z,3.80
2022-10-14T04:41:11.890Z,3.72
2022-10-14T04:46:22.620Z,3.80
2022-10-14T04:51:25.603Z,4.25
2022-10-14T04:56:50.822Z,4.00
2022-10-14T05:01:54.882Z,3.78
2022-10-14T05:07:00.308Z,3.67
2022-10-14T05:12:04.207Z,3.65
2022-10-14T05:17:17.060Z,3.80
2022-10-14T05:22:20.076Z,3.42
2022-10-14T05:27:23.355Z,3.60
2022-10-14T05:32:28.225Z,3.95
2022-10-14T05:37:37.156Z,4.03
2022-10-14T05:42:39.868Z,3.70
2022-10-14T05:47:45.819Z,4.13
2022-10-14T05:52:52.812Z,3.30
2022-10-14T05:58:03.920Z,3.50
2022-10-14T06:03:13.539Z,3.70
2022-10-14T06:08:16.975Z,3.50
2022-10-14T06:13:21.211Z,3.50
2022-10-14T06:18:25.493Z,3.33
2022-10-14T06:23:29.785Z,3.45
2022-10-14T06:28:32.597Z,3.42
2022-10-14T06:33:36.650Z,3.10
2022-10-14T06:38:39.321Z,3.20
2022-10-14T06:43:42.139Z,3.30
2022-10-14T06:48:50.141Z,3.15
2022-10-14T06:53:53.197Z,3.20
2022-10-14T06:58:55.957Z,3.15
2022-10-14T07:03:59.924Z,3.03
2022-10-14T07:09:02.566Z,2.97
2022-10-14T07:14:05.144Z,3.25
2022-10-14T07:19:09.072Z,3.10
2022-10-14T07:24:11.808Z,3.10
2022-10-14T07:29:14.401Z,3.47
2022-10-14T07:34:18.405Z,2.90
2022-10-14T07:39:21.133Z,2.92
2022-10-14T07:44:27.228Z,3.00
2022-10-14T07:49:31.544Z,3.05
2022-10-14T07:54:34.286Z,3.00
2022-10-14T07:59:36.919Z,2.90
2022-10-14T08:04:40.945Z,2.50
2022-10-14T08:09:43.667Z,2.78
2022-10-14T08:14:46.420Z,3.00
2022-10-14T08:19:51.624Z,2.83
2022-10-14T08:24:54.204Z,2.38
2022-10-14T08:29:56.880Z,2.80
2022-10-14T08:35:00.804Z,3.20
2022-10-14T08:40:03.627Z,3.00
2022-10-14T08:45:11.409Z,3.00
2022-10-14T08:50:24.384Z,3.20
2022-10-14T08:55:31.729Z,3.00
2022-10-14T09:00:34.715Z,3.10
2022-10-14T09:05:39.840Z,2.83
2022-10-14T09:10:43.750Z,2.70
2022-10-14T09:15:48.883Z,2.60
2022-10-14T09:20:53.283Z,2.60
2022-10-14T09:25:59.351Z,2.53
2022-10-14T09:31:02.066Z,2.50
2022-10-14T09:36:06.693Z,2.90
2022-10-14T09:41:11.233Z,2.90
2022-10-14T09:46:13.979Z,2.30
2022-10-14T09:51:22.662Z,2.60
2022-10-14T09:56:29.582Z,2.60
2022-10-14T10:01:36.376Z,2.50
2022-10-14T10:06:52.898Z,2.55
2022-10-14T10:11:56.153Z,2.70
2022-10-14T10:17:19.248Z,2.55
2022-10-14T10:22:26.375Z,2.28
2022-10-14T10:27:31.286Z,2.45
2022-10-14T10:32:37.536Z,2.40
2022-10-14T10:37:47.674Z,2.30
2022-10-14T10:43:00.178Z,2.03
2022-10-14T10:48:08.068Z,2.22
2022-10-14T10:53:24.651Z,2.67
2022-10-14T10:58:40.974Z,2.40
2022-10-14T11:03:56.693Z,2.20
2022-10-14T11:09:21.304Z,2.35
2022-10-14T11:14:34.012Z,2.30
2022-10-14T11:19:41.407Z,2.53
2022-10-14T11:24:54.400Z,2.33
2022-10-14T11:30:13.575Z,2.13
2022-10-14T11:35:24.824Z,2.35
2022-10-14T11:40:35.106Z,2.17
2022-10-14T11:45:47.515Z,2.45
2022-10-14T11:50:52.762Z,2.30
2022-10-14T11:56:03.278Z,2.30
2022-10-14T12:01:07.845Z,2.17
2022-10-14T12:06:14.453Z,2.35
2022-10-14T12:11:26.891Z,2.58
2022-10-14T12:16:29.767Z,2.38
2022-10-14T12:21:36.711Z,2.40
2022-10-14T12:26:50.136Z,2.40
2022-10-14T12:32:08.578Z,2.15
2022-10-14T12:37:51.159Z,2.45
2022-10-14T12:43:02.590Z,2.22
2022-10-14T12:48:12.161Z,2.40
2022-10-14T12:53:21.397Z,2.30
2022-10-14T12:58:31.521Z,2.45
2022-10-14T13:03:36.805Z,2.72
2022-10-14T13:08:39.430Z,2.50
2022-10-14T13:14:00.677Z,1.98
2022-10-14T13:19:04.305Z,2.00
2022-10-14T13:24:08.631Z,4.03
2022-10-14T13:29:17.792Z,13.65
2022-10-14T13:34:27.993Z,8.48
2022-10-14T13:39:33.516Z,7.45
2022-10-14T13:44:37.752Z,6.68
2022-10-14T13:49:41.296Z,6.07
2022-10-14T13:54:43.891Z,5.85
2022-10-14T14:05:16.596Z,5.30
2022-10-14T14:10:20.865Z,5.55
2022-10-14T14:15:27.068Z,5.50
2022-10-14T14:20:31.067Z,4.93
2022-10-14T14:25:35.751Z,5.03
2022-10-14T14:30:56.124Z,4.90
2022-10-14T14:36:00.778Z,5.13
2022-10-14T14:41:05.689Z,4.90
2022-10-14T14:46:18.273Z,4.75
2022-10-14T14:51:21.664Z,4.65
2022-10-14T14:56:26.127Z,5.00
2022-10-14T15:01:30.693Z,4.90
2022-10-14T15:06:33.435Z,4.63
2022-10-14T15:11:36.106Z,4.40
2022-10-14T15:16:42.765Z,4.40
2022-10-14T15:21:47.296Z,4.70
2022-10-14T15:26:50.705Z,4.35
2022-10-14T15:32:10.832Z,4.30
2022-10-14T15:37:14.725Z,4.38
2022-10-14T15:42:18.890Z,4.47
2022-10-14T15:47:23.551Z,4.40
2022-10-14T15:52:27.136Z,4.47
2022-10-14T15:57:30.431Z,4.07
2022-10-14T16:02:35.191Z,4.20
2022-10-14T16:07:38.320Z,4.10
2022-10-14T16:12:40.954Z,4.35
2022-10-14T16:17:47.553Z,4.38
2022-10-14T16:22:52.853Z,4.30
2022-10-14T16:27:55.873Z,4.10
2022-10-14T16:33:00.851Z,3.97
2022-10-14T16:38:03.586Z,3.78
2022-10-14T16:43:06.642Z,3.97
2022-10-14T16:48:10.557Z,4.07
2022-10-14T16:53:30.740Z,4.00
2022-10-14T16:58:33.554Z,3.80
2022-10-14T17:03:38.717Z,3.90
2022-10-14T17:08:42.664Z,3.97
2022-10-14T17:13:45.789Z,3.95
2022-10-14T17:18:50.186Z,4.15
2022-10-14T17:23:52.845Z,4.13
2022-10-14T17:28:55.605Z,3.83
2022-10-14T17:34:01.021Z,3.80
2022-10-14T17:39:04.650Z,3.60
2022-10-14T17:44:07.533Z,4.15
2022-10-14T17:49:11.946Z,3.60
2022-10-14T17:54:14.646Z,3.47
2022-10-14T17:59:17.307Z,3.78
2022-10-14T18:04:21.497Z,3.60
2022-10-14T18:09:24.211Z,7.10
2022-10-14T18:14:26.959Z,6.82
2022-10-14T18:19:30.955Z,7.20
2022-10-14T18:24:38.304Z,6.85
2022-10-14T18:29:41.376Z,11.38
2022-10-14T18:34:45.574Z,20.15
2022-10-14T18:39:48.204Z,25.08
2022-10-14T18:44:51.379Z,34.97
2022-10-14T18:49:55.392Z,39.88
2022-10-14T18:54:58.931Z,43.70
2022-10-14T19:00:01.553Z,47.83
2022-10-14T19:05:06.219Z,50.78
2022-10-14T19:10:09.533Z,55.03
2022-10-14T19:15:12.483Z,57.95
2022-10-14T19:20:16.838Z,60.42
2022-10-14T19:25:20.500Z,60.13
2022-10-14T19:30:23.079Z,61.67
2022-10-14T19:35:27.159Z,62.58
2022-10-14T19:40:29.791Z,63.33
2022-10-14T19:45:32.552Z,62.75
2022-10-14T19:50:36.527Z,61.55
2022-10-14T19:55:39.273Z,62.45
2022-10-14T20:00:41.963Z,59.95
2022-10-14T20:05:46.003Z,63.08
2022-10-14T20:10:48.557Z,59.90
2022-10-14T20:15:55.061Z,58.45
2022-10-14T20:20:59.183Z,60.70
2022-10-14T20:26:02.128Z,55.28
2022-10-14T20:31:06.732Z,57.42
2022-10-14T20:36:13.022Z,55.55
2022-10-14T20:41:18.386Z,54.78
2022-10-14T20:46:21.828Z,54.72
2022-10-14T20:51:26.057Z,52.63
2022-10-14T20:56:29.764Z,52.55
2022-10-14T21:01:33.358Z,52.60
2022-10-14T21:06:38.766Z,50.75
2022-10-14T21:11:43.047Z,49.97
2022-10-14T21:16:45.683Z,49.83
2022-10-14T21:21:50.001Z,46.63
2022-10-14T21:26:53.544Z,46.42
2022-10-14T21:31:56.177Z,44.17
2022-10-14T21:37:00.191Z,43.30
2022-10-14T21:42:02.888Z,43.03
2022-10-14T21:47:05.583Z,41.60
2022-10-14T21:52:09.564Z,41.00
2022-10-14T21:57:12.509Z,40.35
2022-10-14T22:02:15.076Z,39.45
2022-10-14T22:07:19.109Z,38.38
2022-10-14T22:12:21.704Z,37.35
2022-10-14T22:17:24.860Z,37.25
2022-10-14T22:22:29.632Z,35.78
2022-10-14T22:27:32.187Z,34.40
2022-10-14T22:32:35.291Z,33.95
2022-10-14T22:37:39.294Z,32.13
2022-10-14T22:42:42.402Z,32.08
2022-10-14T22:47:45.186Z,32.22
2022-10-14T22:52:49.155Z,30.27
2022-10-14T22:57:51.834Z,30.35
2022-10-14T23:02:54.518Z,28.45
2022-10-14T23:07:58.532Z,26.92
2022-10-14T23:13:01.129Z,27.23
2022-10-14T23:18:04.552Z,26.88
2022-10-14T23:23:08.530Z,25.40
2022-10-14T23:28:11.409Z,24.60
2022-10-14T23:33:14.057Z,23.52
2022-10-14T23:38:18.057Z,22.85
2022-10-14T23:43:20.784Z,22.30
2022-10-14T23:48:23.568Z,21.88
2022-10-14T23:53:27.595Z,21.70
2022-10-14T23:58:30.384Z,20.67
